Time;durP1;ratioP1;P1;durP2;ratioP2;P2;SDS_P1;SDS_P2;PMS_P1;PMS_P2;Temp;Humidity;BMP_temperature;BMP_pressure;BME280_temperature;BME280_humidity;BME280_pressure;Samples;Min_cycle;Max_cycle;Signal;HPM_P1;HPM_P2
2022/05/04 00:01:37;;;;;;;9.43;2.80;;;9.50;99.90;;;;;;5060605;28;20079;-68
2022/05/04 00:04:03;;;;;;;11.65;3.33;;;9.40;99.90;;;;;;5059345;28;20056;-67
2022/05/04 00:06:29;;;;;;;10.02;2.95;;;9.30;99.90;;;;;;5075970;28;20044;-69
2022/05/04 00:08:54;;;;;;;11.50;3.15;;;9.30;99.90;;;;;;5058821;28;20047;-69
2022/05/04 00:11:20;;;;;;;8.68;2.90;;;9.30;99.90;;;;;;5072742;28;20040;-67
2022/05/04 00:13:46;;;;;;;9.18;2.88;;;9.30;99.90;;;;;;5055900;28;20037;-67
2022/05/04 00:16:11;;;;;;;9.23;2.75;;;9.40;99.90;;;;;;5055798;28;20043;-68
2022/05/04 00:18:37;;;;;;;11.07;3.00;;;9.30;99.90;;;;;;5055618;28;20047;-69
2022/05/04 00:21:03;;;;;;;13.43;2.70;;;9.40;99.90;;;;;;5056040;28;20127;-68
2022/05/04 00:23:28;;;;;;;9.05;2.80;;;9.30;99.90;;;;;;5075685;28;20071;-69
2022/05/04 00:25:54;;;;;;;8.85;2.85;;;9.20;99.90;;;;;;5075699;28;20044;-67
2022/05/04 00:28:20;;;;;;;11.07;2.83;;;9.20;99.90;;;;;;5075447;28;20055;-67
2022/05/04 00:30:45;;;;;;;10.20;2.90;;;9.20;99.90;;;;;;5076000;28;20036;-68
2022/05/04 00:33:11;;;;;;;10.15;2.75;;;9.20;99.90;;;;;;5075130;28;20493;-67
2022/05/04 00:35:37;;;;;;;9.35;3.15;;;9.30;99.90;;;;;;5039064;28;20039;-69
2022/05/04 00:38:03;;;;;;;9.40;2.97;;;9.40;99.90;;;;;;5038712;28;20044;-67
2022/05/04 00:40:28;;;;;;;12.27;2.53;;;9.30;99.90;;;;;;5055597;28;20037;-68
2022/05/04 00:42:54;;;;;;;15.85;3.10;;;9.20;99.90;;;;;;5055956;28;20131;-67
2022/05/04 00:45:20;;;;;;;10.93;3.00;;;9.20;99.90;;;;;;5058258;28;20040;-69
2022/05/04 00:47:45;;;;;;;11.52;3.00;;;9.30;99.90;;;;;;5058632;28;20108;-68
2022/05/04 00:50:12;;;;;;;10.48;2.97;;;9.20;99.90;;;;;;5059174;28;20072;-68
2022/05/04 00:52:40;;;;;;;10.38;3.05;;;9.10;99.90;;;;;;5071815;28;20115;-69
2022/05/04 00:55:08;;;;;;;9.60;2.92;;;9.20;99.90;;;;;;5079069;28;20040;-67
2022/05/04 01:00:20;;;;;;;9.90;2.95;;;9.30;99.90;;;;;;5079155;28;20048;-68
2022/05/04 01:02:46;;;;;;;9.75;3.08;;;9.20;99.90;;;;;;5064520;28;20052;-67
2022/05/04 01:05:12;;;;;;;10.13;3.05;;;9.20;99.90;;;;;;5042366;28;20391;-68
2022/05/04 01:07:39;;;;;;;9.07;3.05;;;9.10;99.90;;;;;;5041708;28;20037;-68
2022/05/04 01:10:06;;;;;;;11.38;3.35;;;9.10;99.90;;;;;;5042281;28;20043;-68
2022/05/04 01:12:31;;;;;;;13.73;3.08;;;9.00;99.90;;;;;;5070951;28;20052;-68
2022/05/04 01:14:58;;;;;;;11.65;2.88;;;9.00;99.90;;;;;;5078744;28;20362;-67
2022/05/04 01:17:24;;;;;;;10.13;2.58;;;9.10;99.90;;;;;;5078304;28;20043;-67
2022/05/04 01:19:49;;;;;;;8.38;3.00;;;9.00;99.90;;;;;;5078979;28;20043;-67
2022/05/04 01:22:15;;;;;;;12.10;3.22;;;9.10;99.90;;;;;;5068377;28;20393;-67
2022/05/04 01:24:41;;;;;;;8.77;2.60;;;9.20;99.90;;;;;;5074093;28;20051;-68
2022/05/04 01:27:11;;;;;;;10.25;2.63;;;9.30;99.90;;;;;;5078330;28;20114;-68
2022/05/04 01:29:37;;;;;;;10.52;2.58;;;9.20;99.90;;;;;;5078574;28;20044;-68
2022/05/04 01:32:03;;;;;;;10.63;2.70;;;9.20;99.90;;;;;;5077953;28;20032;-68
2022/05/04 01:34:30;;;;;;;10.32;2.70;;;9.10;99.90;;;;;;5078471;28;20046;-68
2022/05/04 01:36:55;;;;;;;8.90;2.53;;;9.10;99.90;;;;;;5078144;28;20046;-68
2022/05/04 01:39:21;;;;;;;11.13;2.70;;;9.00;99.90;;;;;;5061643;28;20032;-67
2022/05/04 01:44:34;;;;;;;12.93;2.97;;;9.00;99.90;;;;;;5058188;28;20094;-68
2022/05/04 01:47:00;;;;;;;11.55;3.58;;;9.00;99.90;;;;;;5057749;28;20041;-68
2022/05/04 01:49:26;;;;;;;9.25;2.80;;;9.00;99.90;;;;;;5057900;28;20033;-68
2022/05/04 01:51:52;;;;;;;10.30;2.85;;;9.00;99.90;;;;;;5065117;28;20097;-68
2022/05/04 01:54:17;;;;;;;13.05;3.25;;;9.00;99.90;;;;;;5078074;28;20036;-67
2022/05/04 01:56:43;;;;;;;8.80;3.00;;;9.00;99.90;;;;;;5060931;28;20048;-67
2022/05/04 01:59:09;;;;;;;13.27;3.17;;;8.90;99.90;;;;;;5061099;28;20078;-68
2022/05/04 02:01:37;;;;;;;10.35;2.97;;;8.90;99.90;;;;;;5077180;28;20453;-68
2022/05/04 02:04:04;;;;;;;9.48;2.88;;;8.90;99.90;;;;;;5077696;28;20036;-67
2022/05/04 02:06:30;;;;;;;11.85;3.55;;;8.80;99.90;;;;;;5077579;28;20043;-67
2022/05/04 02:08:59;;;;;;;12.45;3.03;;;8.90;99.90;;;;;;5077456;28;20040;-68
2022/05/04 02:11:25;;;;;;;14.25;3.20;;;8.80;99.90;;;;;;5077421;28;20036;-67
2022/05/04 02:13:51;;;;;;;11.70;2.95;;;8.90;99.90;;;;;;5077480;28;20046;-68
2022/05/04 02:16:17;;;;;;;9.38;2.80;;;8.80;99.90;;;;;;5077868;28;20101;-69
2022/05/04 02:18:43;;;;;;;8.48;2.58;;;8.70;99.90;;;;;;5077313;28;20044;-69
2022/05/04 02:21:10;;;;;;;11.18;2.95;;;8.80;99.90;;;;;;5077191;28;20767;-67
2022/05/04 02:23:36;;;;;;;10.40;2.80;;;8.80;99.90;;;;;;5057058;28;20423;-67
2022/05/04 02:26:02;;;;;;;11.05;2.88;;;8.80;99.90;;;;;;5057327;28;20056;-67
2022/05/04 02:28:27;;;;;;;13.02;2.75;;;8.70;99.90;;;;;;5056826;28;20181;-68
2022/05/04 02:30:53;;;;;;;11.38;2.60;;;8.70;99.90;;;;;;5057250;28;20127;-67
2022/05/04 02:33:19;;;;;;;9.57;2.83;;;8.60;99.90;;;;;;5075672;28;20040;-67
2022/05/04 02:38:28;;;;;;;10.38;2.95;;;8.70;99.90;;;;;;5076848;28;20052;-66
2022/05/04 02:40:54;;;;;;;10.90;2.88;;;8.70;99.90;;;;;;5077112;28;20048;-67
2022/05/04 02:43:20;;;;;;;8.45;2.75;;;8.80;99.90;;;;;;5076746;28;20054;-68
2022/05/04 02:45:46;;;;;;;9.88;3.10;;;8.80;99.90;;;;;;5076588;28;20040;-70
2022/05/04 02:48:15;;;;;;;12.60;2.92;;;8.70;99.90;;;;;;5075988;28;20040;-68
2022/05/04 02:50:42;;;;;;;8.57;2.80;;;8.70;99.90;;;;;;5071157;28;20166;-68
2022/05/04 02:53:07;;;;;;;11.20;3.05;;;8.60;99.90;;;;;;5057513;28;20048;-68
2022/05/04 02:55:33;;;;;;;10.55;3.10;;;8.60;99.90;;;;;;5056165;28;20040;-68
2022/05/04 02:58:00;;;;;;;10.38;3.08;;;8.70;99.90;;;;;;5055826;28;20075;-68
2022/05/04 03:00:26;;;;;;;12.07;3.15;;;8.70;99.90;;;;;;5055933;28;20377;-67
2022/05/04 03:02:51;;;;;;;9.70;3.25;;;8.80;99.90;;;;;;5058421;28;20050;-68
2022/05/04 03:05:20;;;;;;;9.77;2.78;;;8.70;99.90;;;;;;5044433;28;20476;-67
2022/05/04 03:07:46;;;;;;;9.68;3.08;;;8.80;99.90;;;;;;5075771;28;20445;-67
2022/05/04 03:10:13;;;;;;;7.15;2.60;;;8.80;99.90;;;;;;5076493;28;20040;-68
2022/05/04 03:12:39;;;;;;;12.05;2.92;;;8.80;99.90;;;;;;5076211;28;20040;-67
2022/05/04 03:15:06;;;;;;;9.05;2.90;;;8.80;99.90;;;;;;5076478;28;20043;-68
2022/05/04 03:17:33;;;;;;;8.30;2.42;;;8.70;99.90;;;;;;5076288;28;20314;-69
2022/05/04 03:19:58;;;;;;;9.07;3.58;;;8.70;99.90;;;;;;5076594;28;20212;-67
2022/05/04 03:22:25;;;;;;;11.77;3.13;;;8.60;99.90;;;;;;5076007;28;20040;-67
2022/05/04 03:24:51;;;;;;;9.93;3.28;;;8.70;99.90;;;;;;5076079;28;20144;-67
2022/05/04 03:27:17;;;;;;;10.57;3.13;;;8.70;99.90;;;;;;5075976;28;20040;-67
2022/05/04 03:29:43;;;;;;;8.13;2.90;;;8.70;99.90;;;;;;5076772;28;20079;-67
2022/05/04 03:32:10;;;;;;;8.48;2.53;;;8.80;99.90;;;;;;5059502;28;20071;-67
2022/05/04 03:34:36;;;;;;;13.18;3.05;;;8.70;99.90;;;;;;5076594;28;20402;-67
2022/05/04 03:37:02;;;;;;;9.75;2.70;;;8.60;99.90;;;;;;5076249;28;20314;-67
2022/05/04 03:39:29;;;;;;;9.40;2.72;;;8.60;99.90;;;;;;5076264;28;20040;-67
2022/05/04 03:41:54;;;;;;;8.80;2.90;;;8.60;99.90;;;;;;5059333;28;20078;-69
2022/05/04 03:44:21;;;;;;;13.68;3.05;;;8.60;99.90;;;;;;5093910;28;20067;-68
2022/05/04 03:46:51;;;;;;;9.75;2.80;;;8.70;99.90;;;;;;5075684;28;20052;-68
2022/05/04 03:49:20;;;;;;;11.80;2.92;;;8.70;99.90;;;;;;5076263;28;20040;-68
2022/05/04 03:51:46;;;;;;;11.95;2.70;;;8.80;99.90;;;;;;5058938;28;20468;-67
2022/05/04 03:54:12;;;;;;;8.95;3.08;;;8.70;99.90;;;;;;5076052;28;20044;-68
2022/05/04 03:56:40;;;;;;;8.82;2.63;;;8.80;99.90;;;;;;5062002;28;20515;-67
2022/05/04 03:59:06;;;;;;;9.50;2.58;;;8.80;99.90;;;;;;5039453;28;20052;-67
2022/05/04 04:01:32;;;;;;;10.35;2.97;;;8.80;99.90;;;;;;5058945;28;20047;-67
2022/05/04 04:03:58;;;;;;;11.40;3.28;;;8.70;99.90;;;;;;5075220;28;20071;-67
2022/05/04 04:06:24;;;;;;;9.38;2.38;;;8.70;99.90;;;;;;5075590;28;20086;-67
2022/05/04 04:08:51;;;;;;;11.70;3.13;;;8.80;99.90;;;;;;5075627;28;20040;-67
2022/05/04 04:11:18;;;;;;;10.80;2.88;;;8.80;99.90;;;;;;5076048;28;20043;-67
2022/05/04 04:13:44;;;;;;;7.43;2.42;;;8.90;99.90;;;;;;5075893;28;20051;-68
2022/05/04 04:16:10;;;;;;;10.48;2.50;;;8.80;99.90;;;;;;5058975;28;20039;-67
2022/05/04 04:18:35;;;;;;;11.43;2.83;;;8.80;99.90;;;;;;5077115;28;20044;-68
2022/05/04 04:23:45;;;;;;;9.27;3.20;;;8.80;99.90;;;;;;5058853;28;20048;-68
2022/05/04 04:26:11;;;;;;;12.52;3.10;;;8.70;99.90;;;;;;5042328;28;20055;-67
2022/05/04 04:28:38;;;;;;;11.02;3.10;;;8.70;99.90;;;;;;5058206;28;20074;-68
2022/05/04 04:31:05;;;;;;;9.65;2.70;;;8.70;99.90;;;;;;5059370;28;20036;-68
2022/05/04 04:33:30;;;;;;;10.57;2.42;;;8.80;99.90;;;;;;5061851;28;20422;-66
2022/05/04 04:35:58;;;;;;;9.55;2.55;;;8.80;99.90;;;;;;5057099;28;20668;-67
2022/05/04 04:38:26;;;;;;;9.93;3.33;;;8.80;99.90;;;;;;5078564;28;20369;-66
2022/05/04 04:40:52;;;;;;;8.95;2.65;;;8.90;99.90;;;;;;5079163;28;20083;-68
2022/05/04 04:43:18;;;;;;;11.73;3.38;;;8.90;99.90;;;;;;5079128;28;20124;-66
2022/05/04 04:45:44;;;;;;;10.13;3.30;;;9.00;99.90;;;;;;5079192;28;20102;-66
2022/05/04 04:48:11;;;;;;;7.40;2.95;;;9.00;99.90;;;;;;5078626;28;20119;-68
2022/05/04 04:50:36;;;;;;;11.77;2.97;;;9.00;99.90;;;;;;5078754;28;20146;-66
2022/05/04 04:53:02;;;;;;;15.65;3.40;;;9.00;99.90;;;;;;5078800;28;20460;-67
2022/05/04 04:55:28;;;;;;;12.00;2.92;;;9.00;99.90;;;;;;5079102;28;20036;-66
2022/05/04 04:57:54;;;;;;;8.55;2.47;;;9.00;99.90;;;;;;5078681;28;20055;-66
2022/05/04 05:00:20;;;;;;;13.27;3.28;;;9.00;99.90;;;;;;5078925;28;20040;-67
2022/05/04 05:02:46;;;;;;;11.52;2.83;;;9.10;99.90;;;;;;5096701;28;20357;-67
2022/05/04 05:05:12;;;;;;;12.15;2.97;;;9.00;99.90;;;;;;5078816;28;20453;-67
2022/05/04 05:07:38;;;;;;;7.68;2.53;;;9.10;99.90;;;;;;5078815;28;20035;-68
2022/05/04 05:10:05;;;;;;;13.00;3.15;;;9.10;99.90;;;;;;5078943;28;20349;-67
2022/05/04 05:12:31;;;;;;;12.82;2.75;;;9.10;99.90;;;;;;5068486;28;20032;-67
2022/05/04 05:17:40;;;;;;;8.13;2.50;;;9.10;99.90;;;;;;5057916;28;20040;-66
2022/05/04 05:20:07;;;;;;;9.50;2.53;;;9.00;99.90;;;;;;5058126;28;20446;-66
2022/05/04 05:22:33;;;;;;;8.23;2.42;;;9.10;99.90;;;;;;5069443;28;20453;-67
2022/05/04 05:24:58;;;;;;;10.60;2.50;;;9.20;99.90;;;;;;5078140;28;20097;-67
2022/05/04 05:27:24;;;;;;;9.40;2.83;;;9.30;99.90;;;;;;5051614;28;20485;-68
2022/05/04 05:29:50;;;;;;;13.65;3.40;;;9.20;99.90;;;;;;5057115;28;20438;-67
2022/05/04 05:32:15;;;;;;;8.90;2.83;;;9.30;99.90;;;;;;5049523;28;20046;-66
2022/05/04 05:34:41;;;;;;;9.23;2.97;;;9.30;99.90;;;;;;5072025;28;20043;-67
2022/05/04 05:37:07;;;;;;;10.82;3.00;;;9.40;99.90;;;;;;5057939;28;20083;-69
2022/05/04 05:39:33;;;;;;;10.82;3.22;;;9.30;99.90;;;;;;5058185;28;20032;-68
2022/05/04 05:41:59;;;;;;;8.93;2.60;;;9.40;99.90;;;;;;5064126;28;20032;-68
2022/05/04 05:44:25;;;;;;;8.90;2.90;;;9.40;99.90;;;;;;5078560;28;20036;-69
2022/05/04 05:46:50;;;;;;;10.02;2.90;;;9.40;99.90;;;;;;5061079;28;20109;-69
2022/05/04 05:49:16;;;;;;;10.20;3.03;;;9.30;99.90;;;;;;5078342;28;20036;-69
2022/05/04 05:51:42;;;;;;;10.98;3.10;;;9.40;99.90;;;;;;5061611;28;20042;-69
2022/05/04 05:54:08;;;;;;;10.25;2.90;;;9.40;99.90;;;;;;5078175;28;20409;-69
2022/05/04 05:56:33;;;;;;;10.05;3.03;;;9.50;99.90;;;;;;5077523;28;20036;-69
2022/05/04 05:58:59;;;;;;;10.73;3.28;;;9.40;99.90;;;;;;5077901;28;20040;-68
2022/05/04 06:01:25;;;;;;;7.38;3.08;;;9.40;99.90;;;;;;5077127;28;20073;-65
2022/05/04 06:03:52;;;;;;;12.77;3.40;;;9.40;99.90;;;;;;5077784;28;20437;-66
2022/05/04 06:06:18;;;;;;;6.78;3.30;;;9.40;99.90;;;;;;5095221;28;20419;-66
2022/05/04 06:08:44;;;;;;;12.68;3.47;;;9.30;99.90;;;;;;5076506;28;20476;-68
2022/05/04 06:11:09;;;;;;;11.45;3.45;;;9.40;99.90;;;;;;5094202;28;20040;-66
2022/05/04 06:13:35;;;;;;;12.52;3.58;;;9.40;99.90;;;;;;5095528;28;20032;-66
2022/05/04 06:16:00;;;;;;;10.00;3.75;;;9.60;99.90;;;;;;5077478;28;20475;-66
2022/05/04 06:18:26;;;;;;;11.55;3.72;;;9.70;99.90;;;;;;5077835;28;20052;-66
2022/05/04 06:20:52;;;;;;;9.25;3.33;;;9.70;99.90;;;;;;5095534;28;20079;-67
2022/05/04 06:23:17;;;;;;;10.25;3.30;;;9.60;99.90;;;;;;5094585;28;20094;-66
2022/05/04 06:25:45;;;;;;;8.77;3.17;;;9.70;99.90;;;;;;5077514;28;20040;-68
2022/05/04 06:28:12;;;;;;;12.02;3.78;;;9.80;99.90;;;;;;5095280;28;20046;-66
2022/05/04 06:36:06;;;;;;;10.65;3.58;;;10.10;99.90;;;;;;5095114;28;20044;-67
2022/05/04 06:38:31;;;;;;;12.07;3.30;;;10.20;99.90;;;;;;5094971;28;20058;-66
2022/05/04 06:40:57;;;;;;;9.55;3.17;;;10.30;99.90;;;;;;5076551;28;20066;-68
2022/05/04 06:43:23;;;;;;;9.60;3.25;;;10.30;99.90;;;;;;5076104;28;20048;-67
2022/05/04 06:45:49;;;;;;;11.68;3.25;;;10.20;99.90;;;;;;5076990;28;20051;-67
2022/05/04 06:48:14;;;;;;;7.25;3.00;;;10.30;99.90;;;;;;5076995;28;20036;-67
2022/05/04 06:50:40;;;;;;;8.73;3.38;;;10.30;99.90;;;;;;5077273;28;20096;-68
2022/05/04 06:53:06;;;;;;;13.23;3.25;;;10.40;99.90;;;;;;5076477;28;20469;-67
2022/05/04 06:55:31;;;;;;;8.95;3.15;;;10.40;99.90;;;;;;5060462;28;20345;-67
2022/05/04 06:57:57;;;;;;;10.32;3.47;;;10.60;99.90;;;;;;5095028;28;20050;-67
2022/05/04 07:00:23;;;;;;;8.30;3.00;;;10.60;99.90;;;;;;5094694;28;20372;-67
2022/05/04 07:02:48;;;;;;;9.82;3.10;;;10.70;99.90;;;;;;5094033;28;20032;-67
2022/05/04 07:05:14;;;;;;;6.93;2.88;;;10.80;99.90;;;;;;5076895;28;20101;-68
2022/05/04 07:07:41;;;;;;;9.40;3.22;;;11.10;99.90;;;;;;5076547;28;20380;-67
2022/05/04 07:10:07;;;;;;;9.57;3.10;;;11.70;99.90;;;;;;5094693;28;20050;-68
2022/05/04 07:12:33;;;;;;;10.75;3.08;;;12.50;98.60;;;;;;5076055;28;20048;-67
2022/05/04 07:14:58;;;;;;;7.80;2.70;;;13.30;97.50;;;;;;5076844;28;20051;-67
2022/05/04 07:17:25;;;;;;;11.27;2.83;;;13.90;96.50;;;;;;5076419;28;20528;-68
2022/05/04 07:19:52;;;;;;;9.38;2.92;;;14.60;94.80;;;;;;5076691;28;20097;-68
2022/05/04 07:22:18;;;;;;;8.23;3.08;;;14.30;95.10;;;;;;5076248;28;20048;-67
2022/05/04 07:24:44;;;;;;;7.70;2.60;;;14.10;95.00;;;;;;5076254;28;20060;-69
2022/05/04 07:27:11;;;;;;;9.18;2.78;;;14.10;95.10;;;;;;5094219;28;20048;-68
2022/05/04 07:29:36;;;;;;;6.55;2.78;;;13.50;95.20;;;;;;5094447;28;20071;-68
2022/05/04 07:32:03;;;;;;;9.65;2.70;;;13.10;95.20;;;;;;5075865;28;20071;-68
2022/05/04 07:34:29;;;;;;;9.40;2.90;;;12.50;96.20;;;;;;5076149;28;20082;-67
2022/05/04 07:36:56;;;;;;;8.38;2.65;;;12.30;96.30;;;;;;5076434;28;20052;-67
2022/05/04 07:42:21;;;;;;;13.73;3.22;;;12.30;96.60;;;;;;5075816;28;20067;-68
2022/05/04 07:44:47;;;;;;;8.25;2.80;;;12.40;96.90;;;;;;5076311;28;20071;-68
2022/05/04 07:47:13;;;;;;;7.63;2.95;;;12.50;96.60;;;;;;5076061;28;20036;-68
2022/05/04 07:49:38;;;;;;;8.70;2.80;;;12.40;96.90;;;;;;5059463;28;20040;-68
2022/05/04 07:52:04;;;;;;;11.90;2.90;;;12.70;96.20;;;;;;5075573;28;20059;-69
2022/05/04 07:54:30;;;;;;;8.60;2.88;;;12.60;96.00;;;;;;5079439;28;20043;-67
2022/05/04 07:56:55;;;;;;;5.88;2.33;;;12.90;96.10;;;;;;5080339;28;20051;-68
2022/05/04 07:59:21;;;;;;;10.77;2.58;;;13.00;95.90;;;;;;5080368;28;20159;-68
2022/05/04 08:04:31;;;;;;;10.45;3.13;;;13.00;95.90;;;;;;5080103;28;20449;-68
2022/05/04 08:06:56;;;;;;;14.48;2.85;;;13.10;95.70;;;;;;5079911;28;20043;-68
2022/05/04 08:09:22;;;;;;;10.15;2.55;;;13.40;95.30;;;;;;5080091;28;20044;-68
2022/05/04 08:11:48;;;;;;;9.75;2.53;;;13.50;94.80;;;;;;5079532;28;20111;-68
2022/05/04 08:14:14;;;;;;;8.77;3.00;;;13.20;95.10;;;;;;5079954;28;20036;-68
2022/05/04 08:16:40;;;;;;;8.43;2.65;;;12.80;95.70;;;;;;5079979;28;20036;-68
2022/05/04 08:19:07;;;;;;;10.20;2.95;;;12.50;95.90;;;;;;5079849;28;20044;-68
2022/05/04 08:21:33;;;;;;;12.32;2.88;;;12.80;96.30;;;;;;5079434;28;20445;-67
2022/05/04 08:24:00;;;;;;;5.32;2.13;;;12.90;96.20;;;;;;5097483;28;20040;-68
2022/05/04 08:26:26;;;;;;;8.52;2.40;;;12.90;95.70;;;;;;5079573;28;20048;-68
2022/05/04 08:28:52;;;;;;;8.77;2.53;;;12.90;95.50;;;;;;5079586;28;20431;-68
2022/05/04 08:31:21;;;;;;;9.85;2.80;;;13.00;95.50;;;;;;5097246;28;20055;-68
2022/05/04 08:33:48;;;;;;;11.45;2.83;;;13.00;95.70;;;;;;5079502;28;20040;-68
2022/05/04 08:36:13;;;;;;;11.20;3.00;;;13.00;95.80;;;;;;5063131;28;20527;-68
2022/05/04 08:38:39;;;;;;;13.85;3.20;;;12.60;95.90;;;;;;5097403;28;20035;-68
2022/05/04 08:41:06;;;;;;;10.50;2.60;;;13.00;95.70;;;;;;5078875;28;20377;-69
2022/05/04 08:43:32;;;;;;;8.43;2.50;;;12.90;96.10;;;;;;5096650;28;20623;-69
2022/05/04 08:46:00;;;;;;;8.82;2.92;;;12.90;96.30;;;;;;5079235;28;20036;-68
2022/05/04 08:48:26;;;;;;;10.15;3.13;;;12.80;95.90;;;;;;5062561;28;20071;-67
2022/05/04 08:50:53;;;;;;;22.17;3.38;;;12.60;95.90;;;;;;5096542;28;20465;-66
2022/05/04 08:53:20;;;;;;;12.70;3.30;;;13.00;95.80;;;;;;5062169;28;20040;-67
2022/05/04 08:55:47;;;;;;;7.40;2.58;;;13.40;94.90;;;;;;5079160;28;20059;-68
2022/05/04 08:58:12;;;;;;;10.43;2.88;;;13.40;95.00;;;;;;5096881;28;20457;-66
2022/05/04 09:00:38;;;;;;;10.43;2.67;;;12.90;95.60;;;;;;5078754;28;20303;-68
2022/05/04 09:03:07;;;;;;;8.15;2.75;;;13.20;96.00;;;;;;5096674;28;20119;-68
2022/05/04 09:05:39;;;;;;;9.55;2.95;;;13.00;95.50;;;;;;5095740;28;20052;-66
2022/05/04 09:08:05;;;;;;;8.65;3.03;;;12.90;95.10;;;;;;5096901;28;20040;-68
2022/05/04 09:10:36;;;;;;;6.50;2.50;;;12.80;95.60;;;;;;5096565;28;20089;-67
2022/05/04 09:13:03;;;;;;;9.23;3.05;;;12.90;95.40;;;;;;5096132;28;20330;-68
2022/05/04 09:15:42;;;;;;;10.35;2.72;;;13.00;95.70;;;;;;5078871;28;20051;-67
2022/05/04 09:18:13;;;;;;;9.13;2.63;;;12.80;95.70;;;;;;5078372;28;20040;-67
2022/05/04 09:20:58;;;;;;;10.50;2.67;;;13.20;95.70;;;;;;5078215;28;20051;-66
2022/05/04 09:23:32;;;;;;;11.77;3.17;;;12.90;96.10;;;;;;5090552;28;20456;-67
2022/05/04 09:26:05;;;;;;;10.75;2.70;;;12.70;96.10;;;;;;5076301;28;20063;-67
2022/05/04 09:28:31;;;;;;;10.27;2.90;;;12.90;95.60;;;;;;5058381;28;20461;-66
2022/05/04 09:30:59;;;;;;;8.35;2.67;;;12.80;95.80;;;;;;5075783;28;20062;-67
2022/05/04 09:33:29;;;;;;;8.63;2.40;;;12.90;95.80;;;;;;5057931;28;20449;-68
2022/05/04 09:35:59;;;;;;;10.77;2.80;;;13.10;95.80;;;;;;5058626;28;20044;-68
2022/05/04 09:46:46;;;;;;;12.75;3.00;;;13.50;95.30;;;;;;5058034;28;20080;-67
2022/05/04 09:49:17;;;;;;;8.68;3.33;;;13.80;95.00;;;;;;5075591;28;20119;-66
2022/05/04 09:51:50;;;;;;;9.48;3.13;;;14.00;95.00;;;;;;5057432;28;20040;-67
2022/05/04 09:54:21;;;;;;;10.43;3.33;;;13.80;95.10;;;;;;5058065;28;20048;-66
2022/05/04 09:56:52;;;;;;;10.25;3.17;;;13.90;94.90;;;;;;5058230;28;20048;-68
2022/05/04 09:59:23;;;;;;;10.48;3.05;;;13.60;95.30;;;;;;5058199;28;20048;-66
2022/05/04 10:01:51;;;;;;;10.88;4.03;;;13.40;95.10;;;;;;5057313;28;20058;-66
2022/05/04 10:04:17;;;;;;;8.35;3.00;;;13.20;95.60;;;;;;5057792;28;20040;-67
2022/05/04 10:06:44;;;;;;;7.78;2.78;;;13.20;95.40;;;;;;5057743;28;20055;-66
2022/05/04 10:09:10;;;;;;;6.85;2.95;;;13.00;95.70;;;;;;5075385;28;20047;-67
2022/05/04 10:11:37;;;;;;;9.65;3.00;;;13.00;96.00;;;;;;5057229;28;20048;-67
2022/05/04 10:14:15;;;;;;;10.32;3.22;;;12.80;96.40;;;;;;5037655;28;20048;-66
2022/05/04 10:17:04;;;;;;;9.27;3.10;;;13.00;96.30;;;;;;5037395;28;20040;-66
2022/05/04 10:19:44;;;;;;;9.38;3.00;;;13.10;96.00;;;;;;5037890;28;20409;-66
2022/05/04 10:22:14;;;;;;;6.75;2.72;;;13.10;95.60;;;;;;5060025;28;20123;-66
2022/05/04 10:24:42;;;;;;;10.30;3.05;;;13.30;95.80;;;;;;5090653;28;20063;-66
2022/05/04 10:27:22;;;;;;;11.25;3.50;;;13.50;95.30;;;;;;5094982;28;20467;-66
2022/05/04 10:32:57;;;;;;;9.25;3.17;;;13.40;95.90;;;;;;5084114;28;20036;-65
2022/05/04 10:35:44;;;;;;;7.18;2.75;;;13.20;95.90;;;;;;5057146;28;20048;-66
2022/05/04 10:38:15;;;;;;;7.40;3.30;;;13.30;96.00;;;;;;5074957;28;20048;-66
2022/05/04 10:41:01;;;;;;;9.57;3.22;;;13.40;95.70;;;;;;5056613;28;20384;-66
2022/05/04 10:43:50;;;;;;;9.32;3.53;;;13.50;95.90;;;;;;5090019;28;20399;-65
2022/05/04 10:46:21;;;;;;;7.43;3.47;;;13.50;96.10;;;;;;5094963;28;20043;-66
2022/05/04 10:49:08;;;;;;;6.25;2.95;;;13.40;96.10;;;;;;5094817;28;20522;-68
2022/05/04 10:51:36;;;;;;;11.63;3.05;;;13.80;95.80;;;;;;5094288;28;20036;-66
2022/05/04 10:54:09;;;;;;;8.60;3.10;;;14.10;95.60;;;;;;5093934;28;20114;-66
2022/05/04 10:56:41;;;;;;;7.70;3.00;;;14.00;95.60;;;;;;5094638;28;20464;-66
2022/05/04 10:59:08;;;;;;;7.55;3.05;;;13.80;95.40;;;;;;5077000;28;20043;-66
2022/05/04 11:01:38;;;;;;;8.43;3.25;;;13.70;95.50;;;;;;5094101;28;20032;-66
2022/05/04 11:04:18;;;;;;;8.82;3.47;;;13.60;95.70;;;;;;5056307;28;20044;-66
2022/05/04 11:06:52;;;;;;;10.98;3.45;;;13.50;95.90;;;;;;5074496;28;20040;-67
2022/05/04 11:09:20;;;;;;;7.45;3.45;;;13.20;96.30;;;;;;5074383;28;20037;-66
2022/05/04 11:11:48;;;;;;;8.48;3.10;;;13.20;96.30;;;;;;5057096;28;20044;-66
2022/05/04 11:14:15;;;;;;;12.15;3.45;;;13.50;96.30;;;;;;5094515;28;20059;-66
2022/05/04 11:16:42;;;;;;;12.27;3.70;;;13.80;95.90;;;;;;5094120;28;20123;-66
2022/05/04 11:19:11;;;;;;;8.40;3.05;;;13.80;95.80;;;;;;5094120;28;20498;-66
2022/05/04 11:21:37;;;;;;;8.13;3.22;;;13.90;95.90;;;;;;5093624;28;20036;-67
2022/05/04 11:24:05;;;;;;;8.60;3.38;;;14.00;95.70;;;;;;5074298;28;20055;-66
2022/05/04 11:26:44;;;;;;;9.85;3.38;;;14.30;95.40;;;;;;5074087;28;20071;-66
2022/05/04 11:29:17;;;;;;;9.32;3.75;;;14.20;95.20;;;;;;5056051;28;20117;-66
2022/05/04 11:31:54;;;;;;;11.23;3.63;;;14.40;94.80;;;;;;5073419;28;20055;-66
2022/05/04 11:34:21;;;;;;;10.43;4.03;;;14.60;95.00;;;;;;5074097;28;20123;-66
2022/05/04 11:36:48;;;;;;;9.98;3.30;;;14.40;95.00;;;;;;5056190;28;20127;-67
2022/05/04 11:39:22;;;;;;;9.07;3.08;;;14.30;95.60;;;;;;5056258;28;20044;-65
2022/05/04 11:41:50;;;;;;;;;;;14.60;95.40;;;;;;5073746;28;20432;-66
2022/05/04 11:44:18;;;;;;;8.40;3.38;;;14.70;95.40;;;;;;5056126;28;19920;-66
2022/05/04 11:46:48;;;;;;;10.57;3.30;;;14.60;95.00;;;;;;5055860;28;20135;-66
2022/05/04 11:49:14;;;;;;;6.07;3.13;;;14.70;94.90;;;;;;5056176;28;20036;-65
2022/05/04 11:51:41;;;;;;;10.02;3.63;;;14.80;94.70;;;;;;5055450;28;20051;-66
2022/05/04 11:54:07;;;;;;;7.55;3.00;;;14.90;94.60;;;;;;5073762;28;20115;-66
2022/05/04 11:56:34;;;;;;;14.23;3.55;;;14.80;94.90;;;;;;5073866;28;20124;-66
2022/05/04 11:59:00;;;;;;;10.07;3.58;;;14.70;94.70;;;;;;5073476;28;20045;-66
2022/05/04 12:01:26;;;;;;;10.60;3.03;;;14.80;94.80;;;;;;5055479;28;20515;-66
2022/05/04 12:03:52;;;;;;;8.52;3.90;;;14.80;95.10;;;;;;5073486;28;20046;-67
2022/05/04 12:06:18;;;;;;;10.38;3.70;;;14.90;95.00;;;;;;5073800;28;20079;-67
2022/05/04 12:08:44;;;;;;;8.38;3.72;;;15.00;94.70;;;;;;5056101;28;20079;-67
2022/05/04 12:11:10;;;;;;;6.90;3.22;;;15.10;94.80;;;;;;5073310;28;20033;-66
2022/05/04 12:13:38;;;;;;;9.77;3.80;;;15.30;94.60;;;;;;5073535;28;20036;-66
2022/05/04 12:16:05;;;;;;;10.70;4.07;;;15.40;94.60;;;;;;5073599;28;20041;-66
2022/05/04 12:18:33;;;;;;;8.77;3.83;;;15.50;94.10;;;;;;5073221;28;20029;-66
2022/05/04 12:21:13;;;;;;;8.25;3.70;;;15.50;94.50;;;;;;5073236;28;20353;-66
2022/05/04 12:23:41;;;;;;;7.43;3.47;;;15.50;94.00;;;;;;5073216;28;20052;-65
2022/05/04 12:26:08;;;;;;;10.35;3.80;;;15.50;94.00;;;;;;5073095;28;20052;-68
2022/05/04 12:28:34;;;;;;;8.45;3.42;;;15.80;93.90;;;;;;5073506;28;20094;-65
2022/05/04 12:33:48;;;;;;;13.48;3.70;;;15.50;94.00;;;;;;5073173;28;20465;-66
2022/05/04 12:36:15;;;;;;;9.93;3.53;;;15.70;94.20;;;;;;5073769;28;20040;-65
2022/05/04 12:38:46;;;;;;;14.13;3.80;;;15.90;93.90;;;;;;5055807;28;20044;-65
2022/05/04 12:41:13;;;;;;;10.80;4.15;;;16.10;93.50;;;;;;5058872;28;20457;-65
2022/05/04 12:43:39;;;;;;;8.23;3.30;;;15.70;93.40;;;;;;5076781;28;20110;-65
2022/05/04 12:46:12;;;;;;;8.60;3.45;;;15.80;93.60;;;;;;5059199;28;20565;-65
2022/05/04 12:48:44;;;;;;;8.85;4.03;;;15.80;93.60;;;;;;5076747;28;20102;-66
2022/05/04 12:51:10;;;;;;;9.15;3.70;;;15.50;93.60;;;;;;5076523;28;20036;-66
2022/05/04 12:53:39;;;;;;;11.63;3.92;;;15.20;94.10;;;;;;5059084;28;20045;-65
2022/05/04 12:58:51;;;;;;;10.35;3.65;;;15.40;94.50;;;;;;5076911;28;20128;-65
2022/05/04 13:01:23;;;;;;;7.18;3.30;;;15.50;94.10;;;;;;5076103;28;20036;-65
2022/05/04 13:03:50;;;;;;;8.38;3.47;;;15.50;94.20;;;;;;5076104;28;20457;-65
2022/05/04 13:06:20;;;;;;;14.23;3.90;;;15.50;94.10;;;;;;5076804;28;20407;-66
2022/05/04 13:08:48;;;;;;;17.92;3.97;;;15.50;93.90;;;;;;5076788;28;20032;-66
2022/05/04 13:11:15;;;;;;;35.40;6.18;;;15.70;94.00;;;;;;5076325;28;20046;-65
2022/05/04 13:13:40;;;;;;;13.82;4.25;;;15.70;94.00;;;;;;5076267;28;20093;-67
2022/05/04 13:16:06;;;;;;;7.38;3.72;;;16.00;93.50;;;;;;5076581;28;20040;-66
2022/05/04 13:18:32;;;;;;;9.25;3.50;;;16.10;93.70;;;;;;5076451;28;20426;-66
2022/05/04 13:20:57;;;;;;;11.82;3.88;;;16.00;94.20;;;;;;5058533;28;20120;-66
2022/05/04 13:23:23;;;;;;;10.55;3.88;;;15.90;94.30;;;;;;5062911;28;20040;-67
2022/05/04 13:25:49;;;;;;;7.90;3.38;;;16.00;94.30;;;;;;5078306;28;20134;-66
2022/05/04 13:28:15;;;;;;;7.68;3.30;;;15.90;94.20;;;;;;5078387;28;20039;-66
2022/05/04 13:30:41;;;;;;;9.60;3.80;;;16.00;94.30;;;;;;5096090;28;20032;-67